Time;durP1;ratioP1;P1;durP2;ratioP2;P2;SDS_P1;SDS_P2;PMS_P1;PMS_P2;Temp;Humidity;BMP_temperature;BMP_pressure;BME280_temperature;BME280_humidity;BME280_pressure;Samples;Min_cycle;Max_cycle;Signal;HPM_P1;HPM_P2
2023/05/31 00:01:33;;;;;;;7.13;4.97;;;25.70;99.90;;;;;;5014676;28;20042;-56
2023/05/31 00:03:59;;;;;;;7.28;4.93;;;25.70;99.90;;;;;;5014117;28;20022;-56
2023/05/31 00:06:24;;;;;;;6.45;4.80;;;25.70;99.90;;;;;;5012914;28;20030;-56
2023/05/31 00:08:50;;;;;;;7.35;5.00;;;25.70;99.90;;;;;;5014293;28;20512;-55
2023/05/31 00:11:16;;;;;;;7.97;5.50;;;25.70;99.90;;;;;;5013796;28;20030;-54
2023/05/31 00:13:42;;;;;;;6.35;4.70;;;25.70;99.90;;;;;;5014030;28;20029;-55
2023/05/31 00:16:09;;;;;;;7.50;5.35;;;25.70;99.90;;;;;;5013913;28;20032;-55
2023/05/31 00:18:34;;;;;;;6.90;4.93;;;25.70;99.90;;;;;;5013892;28;20454;-55
2023/05/31 00:21:00;;;;;;;7.20;4.82;;;25.70;99.90;;;;;;5013950;28;20062;-55
2023/05/31 00:23:26;;;;;;;6.78;4.60;;;25.70;99.90;;;;;;5013952;28;20064;-55
2023/05/31 00:25:52;;;;;;;9.35;4.90;;;25.70;99.90;;;;;;5026846;28;20022;-55
2023/05/31 00:28:17;;;;;;;6.75;4.90;;;25.60;99.90;;;;;;5012562;28;20141;-55
2023/05/31 00:30:43;;;;;;;6.72;4.80;;;25.60;99.90;;;;;;5013335;28;20549;-55
2023/05/31 00:33:10;;;;;;;7.00;5.05;;;25.70;99.90;;;;;;5013517;28;20060;-55
2023/05/31 00:35:36;;;;;;;6.60;4.15;;;25.60;99.90;;;;;;5013995;28;20044;-55
2023/05/31 00:38:05;;;;;;;5.93;4.45;;;25.70;99.90;;;;;;5013508;28;20022;-55
2023/05/31 00:40:31;;;;;;;6.78;4.75;;;25.60;99.90;;;;;;5013603;28;20026;-54
2023/05/31 00:42:57;;;;;;;7.38;4.53;;;25.60;99.90;;;;;;5016965;28;20057;-55
2023/05/31 00:45:23;;;;;;;6.93;4.85;;;25.60;99.90;;;;;;5023347;28;20053;-55
2023/05/31 00:47:50;;;;;;;5.53;4.05;;;25.70;99.90;;;;;;5013372;28;20053;-54
2023/05/31 00:50:16;;;;;;;6.73;4.70;;;25.60;99.90;;;;;;5013404;28;20060;-55
2023/05/31 00:52:45;;;;;;;6.88;3.95;;;25.60;99.90;;;;;;5012154;28;20381;-55
2023/05/31 00:55:11;;;;;;;5.90;4.18;;;25.60;99.90;;;;;;5012121;28;20026;-55
2023/05/31 00:57:37;;;;;;;5.90;4.00;;;25.60;99.90;;;;;;5013187;28;20029;-55
2023/05/31 01:02:41;;;;;;;6.07;4.22;;;25.60;99.90;;;;;;5011707;28;20053;-51
2023/05/31 01:05:07;;;;;;;6.63;4.80;;;25.60;99.90;;;;;;5013210;28;20014;-49
2023/05/31 01:07:34;;;;;;;6.03;3.78;;;25.60;99.90;;;;;;5013153;28;20116;-49
2023/05/31 01:10:01;;;;;;;6.75;4.72;;;25.60;99.90;;;;;;5013136;28;20018;-49
2023/05/31 01:12:30;;;;;;;5.07;3.78;;;25.60;99.90;;;;;;5013076;28;20037;-49
2023/05/31 01:15:22;;;;;;;6.32;4.30;;;25.60;99.90;;;;;;5012916;28;20026;-49
2023/05/31 01:18:18;;;;;;;5.55;3.85;;;25.50;99.90;;;;;;5012892;28;20033;-49
2023/05/31 01:20:49;;;;;;;6.47;4.43;;;25.50;99.90;;;;;;5013235;28;20460;-49
2023/05/31 01:23:21;;;;;;;4.88;3.50;;;25.60;99.90;;;;;;5013009;28;20042;-49
2023/05/31 01:26:05;;;;;;;6.82;3.75;;;25.60;99.90;;;;;;5012928;28;20482;-51
2023/05/31 01:28:35;;;;;;;4.93;3.65;;;25.50;99.90;;;;;;5013167;28;20470;-49
2023/05/31 01:31:05;;;;;;;4.97;3.78;;;25.50;99.90;;;;;;5013041;28;20022;-50
2023/05/31 01:33:32;;;;;;;6.22;3.47;;;25.50;99.90;;;;;;5012854;28;20113;-49
2023/05/31 01:35:58;;;;;;;5.40;3.83;;;25.50;99.90;;;;;;5012861;28;20018;-49
2023/05/31 01:38:23;;;;;;;5.93;3.22;;;25.50;99.90;;;;;;5013047;28;20049;-49
2023/05/31 01:40:50;;;;;;;5.53;3.58;;;25.50;99.90;;;;;;5012862;28;20095;-49
2023/05/31 01:43:17;;;;;;;9.25;4.30;;;25.50;99.90;;;;;;5015097;28;20049;-49
2023/05/31 01:45:44;;;;;;;5.97;3.45;;;25.50;99.90;;;;;;5016887;28;20026;-49
2023/05/31 01:48:10;;;;;;;4.93;3.20;;;25.50;99.90;;;;;;5016283;28;20020;-49
2023/05/31 01:50:36;;;;;;;4.15;3.08;;;25.50;99.90;;;;;;4998924;28;20103;-49
2023/05/31 01:53:03;;;;;;;4.70;3.85;;;25.40;99.90;;;;;;5016549;28;20466;-49
2023/05/31 01:55:29;;;;;;;4.43;3.17;;;25.40;99.90;;;;;;5016435;28;20108;-49
2023/05/31 01:57:56;;;;;;;7.03;3.40;;;25.40;99.90;;;;;;5016428;28;20105;-49
2023/05/31 02:00:24;;;;;;;5.03;3.10;;;25.40;99.90;;;;;;5016940;28;20156;-49
2023/05/31 02:02:51;;;;;;;5.85;3.88;;;25.50;99.90;;;;;;5016346;28;20038;-49
2023/05/31 02:05:17;;;;;;;4.45;3.28;;;25.50;99.90;;;;;;5016473;28;20022;-50
2023/05/31 02:07:44;;;;;;;5.38;2.95;;;25.40;99.90;;;;;;5016256;28;20037;-50
2023/05/31 02:10:11;;;;;;;4.20;3.05;;;25.40;99.90;;;;;;5016332;28;20319;-49
2023/05/31 02:12:37;;;;;;;4.65;3.10;;;25.40;99.90;;;;;;5015938;28;20068;-49
2023/05/31 02:15:04;;;;;;;4.55;3.38;;;25.40;99.90;;;;;;5015994;28;20056;-49
2023/05/31 02:17:32;;;;;;;4.53;3.28;;;25.40;99.90;;;;;;5016330;28;20054;-49
2023/05/31 02:19:59;;;;;;;3.90;2.97;;;25.40;99.90;;;;;;5015922;28;20018;-50
2023/05/31 02:22:25;;;;;;;3.40;2.80;;;25.40;99.90;;;;;;5015958;28;20061;-50
2023/05/31 02:24:52;;;;;;;4.75;3.20;;;25.40;99.90;;;;;;5014730;28;20467;-49
2023/05/31 02:27:18;;;;;;;4.05;2.88;;;25.40;99.90;;;;;;5015755;28;20076;-50
2023/05/31 02:29:47;;;;;;;3.63;2.83;;;25.40;99.90;;;;;;5015772;28;20433;-50
2023/05/31 02:32:13;;;;;;;3.70;2.92;;;25.40;99.90;;;;;;5016221;28;20362;-50
2023/05/31 02:34:38;;;;;;;4.15;3.40;;;25.40;99.90;;;;;;5015629;28;20049;-50
2023/05/31 02:37:04;;;;;;;3.97;2.78;;;25.40;99.90;;;;;;5015785;28;20494;-50
2023/05/31 02:39:30;;;;;;;3.88;2.85;;;25.40;99.90;;;;;;5015624;28;20055;-49
2023/05/31 02:41:56;;;;;;;4.00;2.70;;;25.40;99.90;;;;;;5015503;28;20076;-50
2023/05/31 02:44:22;;;;;;;3.33;2.80;;;25.30;99.90;;;;;;5015609;28;20034;-49
2023/05/31 02:46:47;;;;;;;3.78;2.65;;;25.30;99.90;;;;;;5015351;28;20540;-50
2023/05/31 02:49:13;;;;;;;4.45;3.10;;;25.40;99.90;;;;;;5014104;28;20062;-50
2023/05/31 02:51:39;;;;;;;4.13;2.53;;;25.30;99.90;;;;;;5015390;28;20127;-49
2023/05/31 02:54:05;;;;;;;4.50;2.80;;;25.30;99.90;;;;;;5014914;28;20151;-50
2023/05/31 02:56:31;;;;;;;4.13;3.10;;;25.30;99.90;;;;;;5015251;28;20049;-50
2023/05/31 02:58:57;;;;;;;4.70;2.53;;;25.30;99.90;;;;;;5015258;28;20022;-50
2023/05/31 03:01:22;;;;;;;3.35;2.85;;;25.30;99.90;;;;;;5046753;22;20532;-56
2023/05/31 03:03:48;;;;;;;4.03;2.90;;;25.30;99.90;;;;;;5054810;28;20029;-55
2023/05/31 03:06:16;;;;;;;4.65;2.53;;;25.30;99.90;;;;;;5054845;28;20022;-55
2023/05/31 03:08:42;;;;;;;2.95;2.40;;;25.30;99.90;;;;;;5037052;28;20074;-55
2023/05/31 03:11:08;;;;;;;4.35;3.15;;;25.30;99.90;;;;;;5054639;28;20025;-55
2023/05/31 03:13:34;;;;;;;4.38;2.83;;;25.30;99.90;;;;;;5054938;28;20029;-56
2023/05/31 03:16:00;;;;;;;3.53;2.63;;;25.30;99.90;;;;;;5054552;28;20013;-55
2023/05/31 03:18:26;;;;;;;3.75;2.65;;;25.30;99.90;;;;;;5054648;28;20078;-56
2023/05/31 03:20:52;;;;;;;4.28;2.38;;;25.30;99.90;;;;;;5054589;28;20025;-56
2023/05/31 03:23:18;;;;;;;3.35;2.25;;;25.20;99.90;;;;;;5054592;28;20040;-55
2023/05/31 03:25:43;;;;;;;3.80;2.30;;;25.30;99.90;;;;;;5054419;28;20029;-56
2023/05/31 03:28:09;;;;;;;4.32;2.50;;;25.30;99.90;;;;;;5054371;28;20068;-55
2023/05/31 03:30:35;;;;;;;2.85;2.53;;;25.30;99.90;;;;;;5054636;28;20017;-56
2023/05/31 03:33:02;;;;;;;2.72;2.28;;;25.30;99.90;;;;;;5036416;28;20377;-55
2023/05/31 03:35:28;;;;;;;3.35;2.20;;;25.30;99.90;;;;;;5036484;28;20036;-55
2023/05/31 03:37:54;;;;;;;3.30;2.03;;;25.20;99.90;;;;;;5054200;28;20021;-55
2023/05/31 03:40:20;;;;;;;4.57;2.63;;;25.20;99.90;;;;;;5054308;28;20031;-55
2023/05/31 03:42:46;;;;;;;2.40;2.20;;;25.20;99.90;;;;;;5053812;28;20086;-57
2023/05/31 03:45:11;;;;;;;3.33;2.13;;;25.20;99.90;;;;;;5054087;28;20017;-56
2023/05/31 03:47:37;;;;;;;2.58;1.90;;;25.20;99.90;;;;;;5036149;28;20044;-56
2023/05/31 03:50:06;;;;;;;3.83;2.40;;;25.20;99.90;;;;;;5053837;28;20104;-56
2023/05/31 03:52:32;;;;;;;4.40;2.78;;;25.20;99.90;;;;;;5053863;28;20566;-55
2023/05/31 03:54:57;;;;;;;4.07;2.17;;;25.20;99.90;;;;;;5053934;28;20021;-56
2023/05/31 03:57:23;;;;;;;4.03;2.03;;;25.20;99.90;;;;;;5053796;28;20032;-55
2023/05/31 03:59:49;;;;;;;4.07;2.63;;;25.20;99.90;;;;;;5053921;28;20067;-56
2023/05/31 04:02:15;;;;;;;2.75;2.05;;;25.20;99.90;;;;;;5036160;28;20072;-56
2023/05/31 04:04:40;;;;;;;3.05;2.08;;;25.10;99.90;;;;;;5052940;28;20461;-56
2023/05/31 04:07:07;;;;;;;3.13;1.80;;;25.20;99.90;;;;;;5053720;28;20051;-55
2023/05/31 04:09:32;;;;;;;2.95;2.15;;;25.20;99.90;;;;;;5053624;28;20409;-55
2023/05/31 04:11:58;;;;;;;3.35;1.98;;;25.20;99.90;;;;;;5035610;28;20028;-55
2023/05/31 04:14:24;;;;;;;2.10;1.80;;;25.20;99.90;;;;;;5053420;28;20025;-56
2023/05/31 04:16:50;;;;;;;2.83;2.00;;;25.20;99.90;;;;;;5053602;28;20473;-55
2023/05/31 04:19:16;;;;;;;2.65;1.77;;;25.20;99.90;;;;;;5018733;28;20042;-55
2023/05/31 04:21:41;;;;;;;3.60;2.13;;;25.10;99.90;;;;;;5053207;28;20496;-56
2023/05/31 04:24:07;;;;;;;2.47;2.00;;;25.10;99.90;;;;;;5053375;28;20393;-56
2023/05/31 04:26:34;;;;;;;3.92;2.17;;;25.10;99.90;;;;;;5053082;28;20416;-56
2023/05/31 04:28:59;;;;;;;3.22;2.13;;;25.10;99.90;;;;;;5053437;28;20040;-56
2023/05/31 04:31:28;;;;;;;2.90;2.08;;;25.10;99.90;;;;;;5053206;28;20409;-56
2023/05/31 04:33:56;;;;;;;3.03;2.10;;;25.10;99.90;;;;;;5053270;28;20029;-56
2023/05/31 04:36:25;;;;;;;2.20;1.75;;;25.10;99.90;;;;;;5053133;28;20013;-56
2023/05/31 04:38:54;;;;;;;2.47;1.95;;;25.10;99.90;;;;;;5053088;28;20116;-55
2023/05/31 04:41:24;;;;;;;3.13;2.45;;;25.10;99.90;;;;;;5052922;28;20052;-55
2023/05/31 04:43:52;;;;;;;3.08;2.03;;;25.10;99.90;;;;;;5053191;28;20471;-55
2023/05/31 04:46:19;;;;;;;2.75;2.15;;;25.10;99.90;;;;;;5053224;28;20531;-55
2023/05/31 04:48:49;;;;;;;2.30;1.75;;;25.10;99.90;;;;;;5052806;28;20025;-55
2023/05/31 04:51:17;;;;;;;2.40;2.13;;;25.10;99.90;;;;;;5052817;28;20075;-55
2023/05/31 04:53:43;;;;;;;2.83;1.80;;;25.10;99.90;;;;;;5052945;28;20021;-56
2023/05/31 04:56:10;;;;;;;2.38;1.88;;;25.10;99.90;;;;;;5052975;28;20025;-56
2023/05/31 04:58:36;;;;;;;3.13;1.93;;;25.10;99.90;;;;;;5052909;28;20356;-56
2023/05/31 05:01:02;;;;;;;2.67;1.80;;;25.10;99.90;;;;;;5052982;28;20098;-56
2023/05/31 05:03:28;;;;;;;2.95;1.92;;;25.00;99.90;;;;;;5052535;28;20494;-57
2023/05/31 05:05:56;;;;;;;3.38;2.35;;;25.00;99.90;;;;;;5052745;28;20025;-56
2023/05/31 05:08:22;;;;;;;3.03;2.30;;;25.10;99.90;;;;;;5035060;28;20029;-57
2023/05/31 05:10:49;;;;;;;4.80;2.47;;;25.00;99.90;;;;;;5052631;28;20041;-56
2023/05/31 05:13:16;;;;;;;3.30;1.90;;;25.00;99.90;;;;;;5052724;28;20149;-56
2023/05/31 05:15:42;;;;;;;2.42;1.50;;;25.00;99.90;;;;;;5035025;28;20239;-56
2023/05/31 05:18:07;;;;;;;2.17;1.60;;;25.00;99.90;;;;;;5056592;28;20033;-56
2023/05/31 05:20:33;;;;;;;3.17;1.98;;;25.00;99.90;;;;;;5057032;28;20435;-56
2023/05/31 05:23:02;;;;;;;1.70;1.60;;;25.10;99.90;;;;;;5056694;28;20044;-56
2023/05/31 05:25:28;;;;;;;2.65;1.92;;;25.00;99.90;;;;;;5039224;28;20034;-56
2023/05/31 05:27:53;;;;;;;3.70;2.30;;;25.00;99.90;;;;;;5056786;28;20534;-56
2023/05/31 05:30:19;;;;;;;3.67;2.50;;;25.00;99.90;;;;;;5039075;28;20044;-57
2023/05/31 05:32:45;;;;;;;4.43;2.28;;;25.00;99.90;;;;;;5056401;28;20064;-57
2023/05/31 05:35:11;;;;;;;2.05;1.85;;;25.00;99.90;;;;;;5056363;28;20100;-56
2023/05/31 05:37:37;;;;;;;2.83;2.00;;;25.00;99.90;;;;;;5056438;28;20035;-56
2023/05/31 05:40:06;;;;;;;3.55;1.90;;;25.00;99.90;;;;;;5038600;28;20063;-55
2023/05/31 05:42:32;;;;;;;3.47;1.88;;;25.00;99.90;;;;;;5056327;28;20497;-55
2023/05/31 05:44:57;;;;;;;2.75;2.28;;;25.00;99.90;;;;;;5056484;28;20045;-56
2023/05/31 05:47:24;;;;;;;2.50;2.10;;;25.00;99.90;;;;;;5056288;28;20098;-56
2023/05/31 05:49:49;;;;;;;2.80;2.30;;;25.00;99.90;;;;;;5055788;28;20028;-56
2023/05/31 05:52:15;;;;;;;3.75;2.35;;;25.00;99.90;;;;;;5056482;28;20021;-56
2023/05/31 05:54:41;;;;;;;3.75;2.20;;;25.00;99.90;;;;;;5038302;28;20025;-55
2023/05/31 05:57:07;;;;;;;4.45;2.20;;;25.00;99.90;;;;;;5037962;28;20120;-56
2023/05/31 05:59:33;;;;;;;2.90;2.20;;;25.00;99.90;;;;;;5038627;28;20025;-55
2023/05/31 06:01:59;;;;;;;2.83;2.17;;;25.00;99.90;;;;;;5055866;28;20492;-55
2023/05/31 06:04:24;;;;;;;2.80;2.10;;;25.00;99.90;;;;;;5021653;28;20036;-56
2023/05/31 06:06:50;;;;;;;2.85;2.20;;;25.00;99.90;;;;;;5038201;28;20436;-55
2023/05/31 06:09:16;;;;;;;4.63;2.25;;;25.00;99.90;;;;;;5055989;28;20029;-56
2023/05/31 06:11:42;;;;;;;2.80;1.90;;;25.00;99.90;;;;;;5055592;28;20032;-55
2023/05/31 06:14:08;;;;;;;2.75;2.08;;;25.00;99.90;;;;;;5056039;28;20025;-55
2023/05/31 06:16:34;;;;;;;3.03;2.45;;;25.00;99.90;;;;;;5055773;28;20431;-56
2023/05/31 06:19:00;;;;;;;4.00;2.35;;;25.00;99.90;;;;;;5055681;28;20021;-56
2023/05/31 06:21:26;;;;;;;2.97;2.20;;;25.00;99.90;;;;;;5055755;28;20503;-55
2023/05/31 06:23:52;;;;;;;2.70;2.40;;;25.00;99.90;;;;;;5037875;28;20017;-56
2023/05/31 06:26:17;;;;;;;3.13;2.30;;;25.00;99.90;;;;;;5055612;28;20027;-55
2023/05/31 06:28:45;;;;;;;4.38;2.30;;;25.00;99.90;;;;;;5054327;28;20017;-56
2023/05/31 06:31:10;;;;;;;3.60;2.97;;;25.00;99.90;;;;;;5055713;28;20092;-56
2023/05/31 06:33:36;;;;;;;3.08;2.25;;;25.00;99.90;;;;;;5055174;28;20108;-56
2023/05/31 06:36:02;;;;;;;3.78;2.75;;;25.00;99.90;;;;;;5055629;28;20017;-54
2023/05/31 06:38:29;;;;;;;4.40;2.97;;;25.00;99.90;;;;;;5055497;28;20033;-55
2023/05/31 06:40:55;;;;;;;3.70;2.17;;;25.00;99.90;;;;;;5055263;28;20119;-55
2023/05/31 06:43:20;;;;;;;3.38;2.22;;;25.10;99.90;;;;;;5055272;28;20115;-55
2023/05/31 06:45:47;;;;;;;2.50;2.17;;;25.00;99.90;;;;;;5055397;28;20025;-55
2023/05/31 06:48:13;;;;;;;4.30;2.40;;;25.00;99.90;;;;;;5055036;28;20094;-55
2023/05/31 06:50:39;;;;;;;4.00;2.47;;;25.00;99.90;;;;;;5055117;28;20037;-55
2023/05/31 06:53:05;;;;;;;2.60;2.08;;;25.00;99.90;;;;;;5055093;28;20036;-55
2023/05/31 06:55:31;;;;;;;3.45;2.40;;;25.10;99.90;;;;;;5055047;28;20540;-56
2023/05/31 06:57:57;;;;;;;4.53;2.35;;;25.10;99.90;;;;;;5055207;28;20369;-56
2023/05/31 07:00:23;;;;;;;2.63;2.25;;;25.10;99.90;;;;;;5054609;28;20020;-55
2023/05/31 07:02:49;;;;;;;3.42;2.58;;;25.10;99.90;;;;;;5054600;28;20044;-55
2023/05/31 07:05:15;;;;;;;3.67;2.10;;;25.10;99.90;;;;;;5054859;28;20035;-55
2023/05/31 07:07:40;;;;;;;2.45;2.25;;;25.10;99.90;;;;;;5054924;28;20033;-56
2023/05/31 07:10:07;;;;;;;4.00;2.47;;;25.10;99.90;;;;;;5054888;28;20104;-56
2023/05/31 07:12:33;;;;;;;2.60;2.20;;;25.10;99.90;;;;;;5036885;28;20066;-56
2023/05/31 07:14:58;;;;;;;2.83;2.45;;;25.10;99.90;;;;;;5054716;28;20021;-56
2023/05/31 07:17:24;;;;;;;2.85;2.33;;;25.10;99.90;;;;;;5054567;28;20013;-55
2023/05/31 07:19:50;;;;;;;6.03;2.35;;;25.10;99.90;;;;;;5054431;28;20025;-55
2023/05/31 07:22:17;;;;;;;3.47;2.60;;;25.10;99.90;;;;;;5054488;28;20029;-55
2023/05/31 07:24:43;;;;;;;5.40;2.72;;;25.10;99.90;;;;;;5036700;28;20021;-56
2023/05/31 07:27:10;;;;;;;3.00;2.13;;;25.10;99.90;;;;;;5054173;28;20481;-56
2023/05/31 07:29:36;;;;;;;3.53;2.30;;;25.10;99.90;;;;;;5036690;28;20115;-56
2023/05/31 07:32:02;;;;;;;4.03;2.93;;;25.10;99.90;;;;;;5036496;28;20108;-55
2023/05/31 07:34:28;;;;;;;3.45;2.67;;;25.10;99.90;;;;;;5054274;28;20258;-56
2023/05/31 07:36:55;;;;;;;3.63;2.35;;;25.10;99.90;;;;;;5054291;28;20032;-56
2023/05/31 07:39:24;;;;;;;5.40;2.78;;;25.10;99.90;;;;;;5036697;28;20099;-56
2023/05/31 07:41:50;;;;;;;3.45;2.30;;;25.10;99.90;;;;;;5053970;28;20131;-56
2023/05/31 07:44:18;;;;;;;3.35;2.72;;;25.10;99.90;;;;;;5054149;28;20603;-55
2023/05/31 07:46:43;;;;;;;;;;;25.10;99.90;;;;;;5054566;28;20041;-55
2023/05/31 07:49:09;;;;;;;4.55;2.35;;;25.20;99.90;;;;;;5054013;28;19930;-55
2023/05/31 07:51:35;;;;;;;3.75;2.40;;;25.20;99.90;;;;;;5054008;28;20104;-56
2023/05/31 07:54:02;;;;;;;4.05;2.20;;;25.20;99.90;;;;;;5054136;28;20477;-55
2023/05/31 07:56:28;;;;;;;3.50;2.80;;;25.20;99.90;;;;;;5053756;28;20031;-56
2023/05/31 07:58:54;;;;;;;3.65;2.47;;;25.10;99.90;;;;;;5053756;28;20029;-55
2023/05/31 08:01:20;;;;;;;3.53;2.75;;;25.20;99.90;;;;;;5053412;28;20106;-55
2023/05/31 08:03:46;;;;;;;3.90;2.67;;;25.20;99.90;;;;;;5053612;28;20017;-55
2023/05/31 08:06:12;;;;;;;4.50;2.30;;;25.20;99.90;;;;;;5053959;28;20021;-56
2023/05/31 08:08:37;;;;;;;3.90;2.53;;;25.20;99.90;;;;;;5053578;28;20100;-55
2023/05/31 08:11:03;;;;;;;5.90;3.15;;;25.10;99.90;;;;;;5053347;28;20025;-55
2023/05/31 08:13:29;;;;;;;3.42;2.58;;;25.20;99.90;;;;;;5053481;28;20122;-56
2023/05/31 08:15:55;;;;;;;3.65;3.03;;;25.20;99.90;;;;;;5053561;28;20032;-56
2023/05/31 08:18:22;;;;;;;4.10;2.67;;;25.20;99.90;;;;;;5035262;28;20020;-56
2023/05/31 08:20:47;;;;;;;3.72;2.83;;;25.20;99.90;;;;;;5053444;28;20021;-55
2023/05/31 08:23:21;;;;;;;3.47;3.10;;;25.20;99.90;;;;;;5053380;28;20044;-56
2023/05/31 08:25:47;;;;;;;3.03;2.45;;;25.20;99.90;;;;;;5053172;28;20027;-56
2023/05/31 08:28:13;;;;;;;4.23;2.87;;;25.20;99.90;;;;;;5053322;28;20029;-56
2023/05/31 08:30:39;;;;;;;5.30;3.42;;;25.20;99.90;;;;;;5053498;28;20369;-56
2023/05/31 08:33:05;;;;;;;3.45;2.70;;;25.20;99.90;;;;;;5053016;28;20394;-55
2023/05/31 08:35:31;;;;;;;5.32;3.55;;;25.20;99.90;;;;;;5053284;28;20027;-55
2023/05/31 08:37:57;;;;;;;3.65;3.33;;;25.30;99.90;;;;;;5053347;28;20029;-55
2023/05/31 08:40:24;;;;;;;4.63;3.17;;;25.20;99.90;;;;;;5035531;28;20554;-56
2023/05/31 08:43:15;;;;;;;4.10;3.15;;;25.20;99.90;;;;;;5035058;28;20083;-55
2023/05/31 08:45:42;;;;;;;4.80;3.47;;;25.20;99.90;;;;;;5039934;28;20029;-55
2023/05/31 08:48:26;;;;;;;5.15;3.50;;;25.30;99.90;;;;;;5053050;28;20115;-55
2023/05/31 08:50:53;;;;;;;3.63;3.08;;;25.30;99.90;;;;;;5052701;28;20350;-55
2023/05/31 08:53:20;;;;;;;4.57;3.33;;;25.30;99.90;;;;;;5053190;28;20021;-55
2023/05/31 08:55:48;;;;;;;4.10;3.35;;;25.30;99.90;;;;;;5052708;28;20094;-55
2023/05/31 08:58:14;;;;;;;3.42;2.85;;;25.20;99.90;;;;;;5034990;28;20082;-56
2023/05/31 09:00:40;;;;;;;4.13;3.30;;;25.20;99.90;;;;;;5052737;28;20048;-55
2023/05/31 09:03:08;;;;;;;3.85;3.20;;;25.30;99.90;;;;;;5052768;28;20416;-55
2023/05/31 09:05:34;;;;;;;4.72;3.72;;;25.30;99.90;;;;;;5052877;28;20024;-56
2023/05/31 09:08:00;;;;;;;5.95;3.80;;;25.30;99.90;;;;;;5052792;28;20033;-56
2023/05/31 09:10:26;;;;;;;4.90;3.70;;;25.30;99.90;;;;;;5052671;28;20009;-56
2023/05/31 09:12:53;;;;;;;3.95;3.45;;;25.30;99.90;;;;;;5052741;28;20503;-57
2023/05/31 09:15:23;;;;;;;4.38;3.53;;;25.30;99.90;;;;;;5052689;28;20079;-60
2023/05/31 09:17:50;;;;;;;4.43;3.63;;;25.30;99.90;;;;;;5052549;28;20036;-56
2023/05/31 09:20:16;;;;;;;5.47;4.05;;;25.30;99.90;;;;;;5034763;28;20056;-56
2023/05/31 09:22:46;;;;;;;5.85;4.28;;;25.30;99.90;;;;;;5052642;28;20028;-55
2023/05/31 09:25:12;;;;;;;8.90;4.30;;;25.30;99.90;;;;;;5052459;28;20021;-56
2023/05/31 09:27:39;;;;;;;5.50;4.00;;;25.30;99.90;;;;;;5052453;28;20025;-56
2023/05/31 09:30:10;;;;;;;8.43;4.50;;;25.30;99.90;;;;;;5052493;28;20436;-56
2023/05/31 09:32:36;;;;;;;6.05;4.25;;;25.30;99.90;;;;;;5052354;28;20476;-56
2023/05/31 09:35:16;;;;;;;6.57;4.13;;;25.30;99.90;;;;;;5052420;28;20166;-56
2023/05/31 09:37:47;;;;;;;7.30;4.47;;;25.30;99.90;;;;;;5052564;28;20025;-56
2023/05/31 09:40:24;;;;;;;8.23;4.47;;;25.30;99.90;;;;;;5052512;28;20013;-57
2023/05/31 09:42:51;;;;;;;6.72;4.15;;;25.30;99.90;;;;;;5052319;28;20029;-57
2023/05/31 09:45:18;;;;;;;6.63;4.38;;;25.40;99.90;;;;;;5052349;28;20021;-56
2023/05/31 09:47:45;;;;;;;8.13;4.03;;;25.30;99.90;;;;;;5052252;28;20025;-56
2023/05/31 09:50:22;;;;;;;6.28;4.50;;;25.40;99.90;;;;;;5052338;28;20037;-57
2023/05/31 09:52:51;;;;;;;6.93;4.63;;;25.40;99.90;;;;;;5052323;28;20025;-57
2023/05/31 09:55:17;;;;;;;6.57;4.20;;;25.40;99.90;;;;;;5052093;28;20017;-56
2023/05/31 09:57:45;;;;;;;7.28;4.20;;;25.40;99.90;;;;;;5052340;28;20086;-56
2023/05/31 10:00:14;;;;;;;7.10;4.15;;;25.40;99.90;;;;;;5034322;28;20040;-57
2023/05/31 10:02:42;;;;;;;7.28;4.32;;;25.40;99.90;;;;;;5052209;28;20095;-56
2023/05/31 10:05:10;;;;;;;7.05;4.20;;;25.40;99.90;;;;;;5056304;28;20033;-56
2023/05/31 10:07:36;;;;;;;;;;;25.40;99.90;;;;;;5056604;28;20541;-56
2023/05/31 10:10:02;;;;;;;6.07;4.30;;;25.40;99.90;;;;;;5055870;28;19905;-56
2023/05/31 10:12:31;;;;;;;6.13;4.25;;;25.40;99.90;;;;;;5055756;28;20082;-56
2023/05/31 10:15:06;;;;;;;8.68;4.53;;;25.40;99.90;;;;;;5055927;28;20537;-56
2023/05/31 10:17:38;;;;;;;7.05;4.22;;;25.40;99.90;;;;;;5056063;28;20043;-56
2023/05/31 10:20:09;;;;;;;7.53;4.47;;;25.40;99.90;;;;;;5055598;28;20025;-58
2023/05/31 10:22:39;;;;;;;5.50;4.35;;;25.40;99.90;;;;;;5055849;28;20029;-56
2023/05/31 10:25:11;;;;;;;5.93;4.30;;;25.40;99.90;;;;;;5055703;28;20132;-56
2023/05/31 10:27:39;;;;;;;8.95;4.57;;;25.40;99.90;;;;;;5037647;28;20139;-56
2023/05/31 10:30:06;;;;;;;5.70;4.65;;;25.40;99.90;;;;;;5037668;28;20021;-56
2023/05/31 10:32:37;;;;;;;7.47;4.55;;;25.40;99.90;;;;;;5055722;28;20376;-55
2023/05/31 10:35:03;;;;;;;8.70;4.68;;;25.40;99.90;;;;;;5037447;28;20503;-56
2023/05/31 10:37:30;;;;;;;7.88;4.72;;;25.40;99.90;;;;;;5055561;28;20021;-55
2023/05/31 10:40:01;;;;;;;7.25;4.55;;;25.40;99.90;;;;;;5055181;28;20086;-55
2023/05/31 10:42:59;;;;;;;5.80;4.13;;;25.50;99.90;;;;;;5055242;28;20032;-55
2023/05/31 10:45:48;;;;;;;8.80;4.30;;;25.40;99.90;;;;;;5055198;28;20020;-56
2023/05/31 10:48:27;;;;;;;7.28;4.70;;;25.50;99.90;;;;;;5055072;28;20103;-56
2023/05/31 10:50:57;;;;;;;8.13;5.50;;;25.40;99.90;;;;;;5038197;28;20028;-56
2023/05/31 10:53:34;;;;;;;8.20;6.13;;;25.50;99.90;;;;;;5055292;28;20014;-56
2023/05/31 10:56:04;;;;;;;6.50;5.13;;;25.50;99.90;;;;;;5055082;28;20024;-55
2023/05/31 10:58:36;;;;;;;7.18;5.00;;;25.50;99.90;;;;;;5055166;28;20029;-56
2023/05/31 11:01:04;;;;;;;7.50;5.32;;;25.50;99.90;;;;;;5054992;28;20159;-56
2023/05/31 11:03:34;;;;;;;9.18;6.18;;;25.50;99.90;;;;;;5054804;28;20111;-56
2023/05/31 11:06:05;;;;;;;8.18;5.75;;;25.50;99.90;;;;;;5055236;28;20382;-61
2023/05/31 11:08:31;;;;;;;7.57;5.68;;;25.60;99.90;;;;;;5054800;28;20017;-56
2023/05/31 11:11:26;;;;;;;7.93;5.38;;;25.50;99.90;;;;;;5037186;28;20032;-55
2023/05/31 11:13:59;;;;;;;8.05;5.78;;;25.50;99.90;;;;;;5042830;28;20355;-55
2023/05/31 11:16:26;;;;;;;8.95;6.50;;;25.60;99.90;;;;;;5054914;28;20366;-55
2023/05/31 11:19:05;;;;;;;;;;;25.60;99.90;;;;;;5055394;28;20021;-56
2023/05/31 11:21:50;;;;;;;7.63;5.22;;;25.60;99.90;;;;;;5054474;28;19955;-56
2023/05/31 11:24:31;;;;;;;8.75;5.63;;;25.60;99.90;;;;;;5054584;28;20104;-56
2023/05/31 11:26:58;;;;;;;8.32;5.35;;;25.60;99.90;;;;;;5054243;28;20090;-56
2023/05/31 11:29:24;;;;;;;7.53;5.70;;;25.60;99.90;;;;;;5037100;28;20029;-56
2023/05/31 11:31:58;;;;;;;9.95;5.38;;;25.60;99.90;;;;;;5054331;28;20032;-55
2023/05/31 11:34:33;;;;;;;8.38;4.93;;;25.60;99.90;;;;;;5054365;28;20104;-56
2023/05/31 11:37:03;;;;;;;7.57;5.35;;;25.60;99.90;;;;;;5054373;28;20020;-56
2023/05/31 11:39:30;;;;;;;7.75;5.47;;;25.60;99.90;;;;;;5036931;28;20025;-56
2023/05/31 11:41:56;;;;;;;8.00;5.40;;;25.60;99.90;;;;;;5054004;28;20025;-56
2023/05/31 11:44:31;;;;;;;10.65;5.43;;;25.60;99.90;;;;;;5054393;28;20358;-56
2023/05/31 11:47:05;;;;;;;7.30;5.30;;;25.60;99.90;;;;;;5054120;28;20017;-57
2023/05/31 11:49:32;;;;;;;8.02;5.88;;;25.70;99.90;;;;;;5054013;28;20036;-56
2023/05/31 11:51:58;;;;;;;6.30;4.47;;;25.60;99.90;;;;;;5054156;28;20021;-56
2023/05/31 11:54:32;;;;;;;7.97;5.38;;;25.70;99.90;;;;;;5054235;28;20666;-56
2023/05/31 11:57:09;;;;;;;7.40;5.57;;;25.70;99.90;;;;;;5053730;28;20020;-56
2023/05/31 11:59:36;;;;;;;9.60;6.60;;;25.70;99.90;;;;;;5053899;28;20039;-56
2023/05/31 12:02:04;;;;;;;9.40;6.57;;;25.70;99.90;;;;;;5040294;28;20418;-56
2023/05/31 12:04:40;;;;;;;9.68;5.93;;;25.70;99.90;;;;;;5053602;28;20385;-56
2023/05/31 12:07:09;;;;;;;7.57;5.60;;;25.70;99.90;;;;;;5053727;28;20505;-56
2023/05/31 12:09:35;;;;;;;8.60;5.28;;;25.70;99.90;;;;;;5053657;28;20036;-56
2023/05/31 12:12:03;;;;;;;8.25;5.35;;;25.70;99.90;;;;;;5053705;28;20020;-56
2023/05/31 12:14:29;;;;;;;8.57;5.60;;;25.70;99.90;;;;;;5053649;28;20021;-56
2023/05/31 12:16:55;;;;;;;9.68;6.05;;;25.70;99.90;;;;;;5053500;28;20024;-56
2023/05/31 12:19:21;;;;;;;7.78;5.35;;;25.70;99.90;;;;;;5053496;28;20028;-57
2023/05/31 12:21:48;;;;;;;7.63;5.55;;;25.70;99.90;;;;;;5053382;28;20028;-56
2023/05/31 12:24:17;;;;;;;10.27;6.93;;;25.70;99.90;;;;;;5053400;28;20021;-57
2023/05/31 12:26:49;;;;;;;10.30;6.57;;;25.80;99.90;;;;;;5052487;28;20013;-56
2023/05/31 12:29:16;;;;;;;9.27;7.38;;;25.80;99.90;;;;;;5053362;28;20060;-56
2023/05/31 12:31:42;;;;;;;10.75;8.60;;;25.80;99.90;;;;;;5053275;28;20017;-56
2023/05/31 12:34:11;;;;;;;13.15;8.68;;;25.80;99.90;;;;;;5053167;28;20028;-56
2023/05/31 12:36:47;;;;;;;13.27;9.77;;;25.80;99.90;;;;;;5053209;28;20017;-56
2023/05/31 12:39:21;;;;;;;14.95;10.63;;;25.80;99.90;;;;;;5053150;28;20021;-56
2023/05/31 12:41:49;;;;;;;14.27;9.55;;;25.80;99.90;;;;;;5052513;28;20029;-56
2023/05/31 12:44:21;;;;;;;;;;;25.80;99.90;;;;;;5053497;28;20512;-56
2023/05/31 12:46:50;;;;;;;13.75;9.25;;;25.80;99.90;;;;;;5052902;28;19988;-56
2023/05/31 12:49:27;;;;;;;11.82;8.90;;;25.80;99.90;;;;;;5052928;28;20475;-56
2023/05/31 12:51:56;;;;;;;;;;;25.80;99.90;;;;;;5053268;28;20025;-56
2023/05/31 12:54:25;;;;;;;12.77;8.13;;;25.80;99.90;;;;;;5053003;28;20365;-56